Time;durP1;ratioP1;P1;durP2;ratioP2;P2;SDS_P1;SDS_P2;PMS_P1;PMS_P2;Temp;Humidity;BMP_temperature;BMP_pressure;BME280_temperature;BME280_humidity;BME280_pressure;Samples;Min_cycle;Max_cycle;Signal;HPM_P1;HPM_P2
2023/01/04 00:01:00;;;;;;;8.10;1.33;;;10.40;81.80;;;;;;5077160;28;20502;-58
2023/01/04 00:03:26;;;;;;;2.45;0.75;;;10.40;81.90;;;;;;5097420;28;20024;-58
2023/01/04 00:05:52;;;;;;;2.83;1.05;;;10.40;81.90;;;;;;5104544;28;20134;-66
2023/01/04 00:08:18;;;;;;;6.70;1.70;;;10.40;82.00;;;;;;5096753;28;20027;-58
2023/01/04 00:10:43;;;;;;;2.75;1.10;;;10.40;82.10;;;;;;5063614;28;20035;-66
2023/01/04 00:13:09;;;;;;;2.00;0.80;;;10.40;82.30;;;;;;5095487;28;20052;-58
2023/01/04 00:15:34;;;;;;;1.60;1.05;;;10.40;82.50;;;;;;5102274;28;20132;-59
2023/01/04 00:18:00;;;;;;;3.83;1.25;;;10.40;82.70;;;;;;5081204;28;20509;-58
2023/01/04 00:20:26;;;;;;;1.33;1.02;;;10.40;82.90;;;;;;5099892;28;20518;-59
2023/01/04 00:22:52;;;;;;;2.50;0.93;;;10.30;83.10;;;;;;5097434;28;20020;-66
2023/01/04 00:25:17;;;;;;;1.25;0.90;;;10.30;83.20;;;;;;5104593;28;20421;-67
2023/01/04 00:27:43;;;;;;;4.65;0.82;;;10.30;83.60;;;;;;5088237;28;20028;-58
2023/01/04 00:30:09;;;;;;;5.40;1.23;;;10.30;83.80;;;;;;5088522;28;20410;-66
2023/01/04 00:32:35;;;;;;;2.28;1.00;;;10.30;83.80;;;;;;5089938;28;20467;-59
2023/01/04 00:35:00;;;;;;;3.80;1.10;;;10.30;83.90;;;;;;5089920;28;20085;-58
2023/01/04 00:37:26;;;;;;;4.45;1.17;;;10.30;84.20;;;;;;5070937;28;20410;-66
2023/01/04 00:39:52;;;;;;;6.43;0.80;;;10.30;84.40;;;;;;5072989;28;20031;-58
2023/01/04 00:42:17;;;;;;;2.28;0.77;;;10.20;84.50;;;;;;5089847;28;20493;-59
2023/01/04 00:44:43;;;;;;;1.15;0.85;;;10.30;84.60;;;;;;5088710;28;20395;-66
2023/01/04 00:47:09;;;;;;;1.48;0.95;;;10.30;84.90;;;;;;5071758;28;20051;-66
2023/01/04 00:49:34;;;;;;;3.63;1.40;;;10.30;85.00;;;;;;5089913;28;20023;-66
2023/01/04 00:52:00;;;;;;;2.58;1.42;;;10.30;85.00;;;;;;5072206;28;20032;-58
2023/01/04 00:54:26;;;;;;;1.52;1.10;;;10.30;85.30;;;;;;5071309;28;20497;-59
2023/01/04 00:56:52;;;;;;;1.27;1.13;;;10.30;85.60;;;;;;5090059;28;20118;-66
2023/01/04 00:59:19;;;;;;;3.45;1.23;;;10.20;85.60;;;;;;5085883;28;20025;-59
2023/01/04 01:01:45;;;;;;;3.40;1.23;;;10.20;85.80;;;;;;5080357;28;20521;-59
2023/01/04 01:04:13;;;;;;;1.48;1.08;;;10.20;86.00;;;;;;5089799;28;20112;-59
2023/01/04 01:06:39;;;;;;;2.20;1.02;;;10.20;86.10;;;;;;5061166;28;20040;-59
2023/01/04 01:09:05;;;;;;;4.78;1.63;;;10.20;86.20;;;;;;5088442;28;20031;-58
2023/01/04 01:11:31;;;;;;;1.80;1.13;;;10.20;86.30;;;;;;5089524;28;20137;-66
2023/01/04 01:13:58;;;;;;;8.02;1.58;;;10.20;86.30;;;;;;5072706;28;20024;-58
2023/01/04 01:16:24;;;;;;;4.93;1.63;;;10.30;86.50;;;;;;5090188;28;20016;-58
2023/01/04 01:18:50;;;;;;;2.05;1.30;;;10.30;86.60;;;;;;5089236;28;20499;-60
2023/01/04 01:21:22;;;;;;;2.17;1.08;;;10.20;86.80;;;;;;5088961;28;20103;-58
2023/01/04 01:23:48;;;;;;;1.40;0.90;;;10.20;87.00;;;;;;5089203;28;20035;-66
2023/01/04 01:26:17;;;;;;;1.45;0.95;;;10.20;87.20;;;;;;5089401;28;20034;-66
2023/01/04 01:28:43;;;;;;;0.63;0.63;;;10.20;87.40;;;;;;5077252;28;20670;-58
2023/01/04 01:31:13;;;;;;;2.03;0.90;;;10.30;87.40;;;;;;5085178;28;20021;-66
2023/01/04 01:33:40;;;;;;;3.25;1.05;;;10.30;87.50;;;;;;5089643;28;20052;-66
2023/01/04 01:36:07;;;;;;;3.17;0.80;;;10.30;87.80;;;;;;5083478;28;20095;-67
2023/01/04 01:38:33;;;;;;;1.30;1.00;;;10.30;88.00;;;;;;5089172;28;20031;-58
2023/01/04 01:40:59;;;;;;;2.00;0.80;;;10.30;88.10;;;;;;5101391;28;20394;-58
2023/01/04 01:43:46;;;;;;;2.72;0.73;;;10.30;88.30;;;;;;5079009;28;20106;-59
2023/01/04 01:46:13;;;;;;;1.55;0.82;;;10.40;88.30;;;;;;5092170;28;20027;-59
2023/01/04 01:48:40;;;;;;;2.58;0.90;;;10.40;88.30;;;;;;5091933;28;20042;-66
2023/01/04 01:51:06;;;;;;;4.05;1.10;;;10.40;88.40;;;;;;5092668;28;20027;-58
2023/01/04 01:53:36;;;;;;;1.45;0.70;;;10.40;88.70;;;;;;5093178;28;20053;-66
2023/01/04 01:56:04;;;;;;;1.80;0.98;;;10.40;88.90;;;;;;5076594;28;20023;-59
2023/01/04 01:58:38;;;;;;;0.90;0.68;;;10.40;89.00;;;;;;5094096;28;20039;-58
2023/01/04 02:01:04;;;;;;;5.47;0.90;;;10.40;89.00;;;;;;5094044;28;20036;-59
2023/01/04 02:03:35;;;;;;;3.53;1.35;;;10.40;89.30;;;;;;5094495;28;20028;-58
2023/01/04 02:06:04;;;;;;;2.92;0.70;;;10.40;89.20;;;;;;5093341;28;20491;-58
2023/01/04 02:08:30;;;;;;;2.70;1.00;;;10.40;89.20;;;;;;5094548;28;20031;-66
2023/01/04 02:10:56;;;;;;;1.08;0.85;;;10.50;89.30;;;;;;5088848;28;20036;-60
2023/01/04 02:14:25;;;;;;;1.38;0.65;;;10.50;89.30;;;;;;5075800;28;20035;-58
2023/01/04 02:16:23;;;;;;;3.33;0.55;;;10.50;89.40;;;;;;5093672;28;20040;-58
2023/01/04 02:19:04;;;;;;;2.05;0.95;;;10.50;89.40;;;;;;5093802;28;20385;-59
2023/01/04 02:21:58;;;;;;;2.72;0.88;;;10.60;89.30;;;;;;5091692;28;20076;-58
2023/01/04 02:24:45;;;;;;;0.57;0.47;;;10.60;89.20;;;;;;5083804;28;20463;-66
2023/01/04 02:27:32;;;;;;;3.55;0.95;;;10.60;89.20;;;;;;5086424;28;20024;-59
2023/01/04 02:30:10;;;;;;;2.00;1.05;;;10.60;89.30;;;;;;5089438;28;20434;-58
2023/01/04 02:32:56;;;;;;;2.05;0.90;;;10.70;89.30;;;;;;5091526;28;20101;-59
2023/01/04 02:35:38;;;;;;;0.30;0.30;;;10.70;89.30;;;;;;5078207;28;20036;-66
2023/01/04 02:38:15;;;;;;;;;;;10.70;89.40;;;;;;5108822;28;20019;-66
2023/01/04 02:40:55;;;;;;;2.10;0.40;;;10.70;89.60;;;;;;5111124;28;19907;-58
2023/01/04 02:46:34;;;;;;;0.60;0.60;;;10.70;89.60;;;;;;5099858;28;20027;-67
2023/01/04 02:51:46;;;;;;;0.88;0.60;;;10.80;89.90;;;;;;5091779;28;20077;-58
2023/01/04 02:54:20;;;;;;;1.10;1.00;;;10.70;90.00;;;;;;5092009;28;20455;-59
2023/01/04 02:56:52;;;;;;;1.48;0.90;;;10.80;90.00;;;;;;5092384;28;20081;-58
2023/01/04 02:59:43;;;;;;;0.50;0.50;;;10.80;90.00;;;;;;5091081;28;20093;-59
2023/01/04 03:08:31;;;;;;;0.70;0.65;;;10.80;90.10;;;;;;5094189;28;20034;-58
2023/01/04 03:12:30;;;;;;;0.40;0.40;;;10.90;90.10;;;;;;5073125;28;20032;-58
2023/01/04 03:13:53;;;;;;;1.83;0.73;;;10.90;90.10;;;;;;5094328;28;20379;-66
2023/01/04 03:16:23;;;;;;;0.38;0.38;;;10.90;90.10;;;;;;5075096;28;20055;-66
2023/01/04 03:18:56;;;;;;;0.50;0.50;;;11.00;90.10;;;;;;5088427;28;20030;-58
2023/01/04 03:21:25;;;;;;;2.20;0.65;;;11.00;90.10;;;;;;5092305;28;20078;-58
2023/01/04 03:36:11;;;;;;;0.73;0.57;;;11.00;90.20;;;;;;5078684;28;20042;-59
2023/01/04 03:50:29;;;;;;;0.73;0.57;;;11.10;90.40;;;;;;5084449;28;20437;-66
2023/01/04 03:52:58;;;;;;;1.23;0.63;;;11.10;90.40;;;;;;5070797;28;20073;-66
2023/01/04 03:55:26;;;;;;;1.60;0.75;;;11.10;90.40;;;;;;5075455;28;20089;-66
2023/01/04 03:57:52;;;;;;;0.38;0.38;;;11.20;90.40;;;;;;5093173;28;20119;-66
2023/01/04 04:00:18;;;;;;;1.25;0.55;;;11.20;90.40;;;;;;5092881;28;20110;-66
2023/01/04 04:02:46;;;;;;;0.60;0.40;;;11.20;90.40;;;;;;5090622;28;20134;-66
2023/01/04 04:10:50;;;;;;;0.77;0.47;;;11.30;90.50;;;;;;5091835;28;20513;-66
2023/01/04 04:13:15;;;;;;;0.43;0.43;;;11.40;90.50;;;;;;5074338;28;20032;-59
2023/01/04 04:15:41;;;;;;;0.70;0.50;;;11.40;90.40;;;;;;5092496;28;20054;-58
2023/01/04 04:18:07;;;;;;;0.40;0.40;;;11.40;90.40;;;;;;5074310;28;20115;-58
2023/01/04 04:20:33;;;;;;;0.40;0.40;;;11.40;90.40;;;;;;5094167;28;20032;-58
2023/01/04 04:22:58;;;;;;;0.45;0.43;;;11.40;90.30;;;;;;5071877;28;20026;-59
2023/01/04 04:25:24;;;;;;;7.45;0.60;;;11.50;90.40;;;;;;5090866;28;20426;-58
2023/01/04 04:27:50;;;;;;;0.63;0.30;;;11.50;90.50;;;;;;5088242;28;20020;-58
2023/01/04 04:30:16;;;;;;;0.75;0.70;;;11.50;90.40;;;;;;5102543;28;20445;-58
2023/01/04 04:32:41;;;;;;;1.58;0.75;;;11.50;90.40;;;;;;5102601;28;20404;-59
2023/01/04 04:35:07;;;;;;;1.25;0.60;;;11.60;90.50;;;;;;5103749;28;20020;-66
2023/01/04 04:37:33;;;;;;;1.70;0.70;;;11.60;90.50;;;;;;5089595;28;20646;-66
2023/01/04 04:40:00;;;;;;;0.60;0.60;;;11.60;90.50;;;;;;5095061;28;20062;-58
2023/01/04 04:42:26;;;;;;;0.70;0.70;;;11.60;90.50;;;;;;5109453;28;20046;-65
2023/01/04 04:44:51;;;;;;;2.05;0.93;;;11.70;90.40;;;;;;5099448;28;20016;-66
2023/01/04 04:47:17;;;;;;;1.08;0.88;;;11.70;90.40;;;;;;5109847;28;20070;-66
2023/01/04 04:49:43;;;;;;;0.57;0.57;;;11.70;90.40;;;;;;5108892;28;20031;-58
2023/01/04 04:52:08;;;;;;;0.60;0.60;;;11.80;90.40;;;;;;5096230;28;20050;-59
2023/01/04 04:54:34;;;;;;;0.52;0.52;;;11.80;90.40;;;;;;5104784;28;20038;-59
2023/01/04 04:57:00;;;;;;;0.43;0.35;;;11.80;90.40;;;;;;5101219;28;20043;-58
2023/01/04 04:59:25;;;;;;;0.50;0.50;;;11.80;90.40;;;;;;5107778;28;20034;-66
2023/01/04 05:01:51;;;;;;;0.68;0.50;;;11.90;90.40;;;;;;5078899;28;20130;-58
2023/01/04 05:04:18;;;;;;;0.57;0.47;;;11.80;90.40;;;;;;5088405;28;20020;-58
2023/01/04 05:06:46;;;;;;;0.85;0.70;;;11.80;90.40;;;;;;5086657;28;20032;-58
2023/01/04 05:09:13;;;;;;;0.60;0.60;;;11.90;90.40;;;;;;5087900;28;20158;-59
2023/01/04 05:14:24;;;;;;;0.95;0.63;;;11.80;90.50;;;;;;5061626;28;20055;-59
2023/01/04 05:16:50;;;;;;;1.40;0.85;;;11.90;90.60;;;;;;5070213;28;20060;-66
2023/01/04 05:19:15;;;;;;;1.52;0.80;;;11.90;90.50;;;;;;5088107;28;20059;-66
2023/01/04 05:21:41;;;;;;;1.20;0.80;;;11.90;90.50;;;;;;5078239;28;20033;-66
2023/01/04 05:24:09;;;;;;;1.13;0.70;;;11.90;90.50;;;;;;5067097;28;20021;-58
2023/01/04 05:26:35;;;;;;;0.50;0.50;;;11.90;90.50;;;;;;5074760;28;20078;-58
2023/01/04 05:29:00;;;;;;;0.95;0.52;;;11.90;90.50;;;;;;5070343;28;20252;-59
2023/01/04 05:31:26;;;;;;;0.70;0.70;;;12.00;90.60;;;;;;5071199;28;20045;-59
2023/01/04 05:33:52;;;;;;;1.58;0.90;;;11.90;90.50;;;;;;5067217;28;20124;-66
2023/01/04 05:36:17;;;;;;;1.85;1.10;;;11.90;90.80;;;;;;5065652;28;20027;-58
2023/01/04 05:38:43;;;;;;;1.83;1.00;;;11.90;90.60;;;;;;5071581;28;20032;-58
2023/01/04 05:42:24;;;;;;;0.65;0.60;;;11.90;90.70;;;;;;5071102;28;20051;-58
2023/01/04 05:43:54;;;;;;;0.77;0.77;;;12.00;90.70;;;;;;5061443;28;20044;-58
2023/01/04 05:46:20;;;;;;;0.60;0.52;;;11.90;90.80;;;;;;5072019;28;20390;-66
2023/01/04 05:48:46;;;;;;;0.60;0.55;;;11.90;90.80;;;;;;5070649;28;20039;-59
2023/01/04 05:51:12;;;;;;;0.98;0.88;;;11.90;90.80;;;;;;5068482;28;20158;-66
2023/01/04 05:53:38;;;;;;;2.03;0.90;;;11.90;90.80;;;;;;5069771;28;20032;-58
2023/01/04 05:56:04;;;;;;;1.33;0.98;;;11.90;90.80;;;;;;5064476;28;20376;-59
2023/01/04 05:58:29;;;;;;;1.02;0.60;;;12.00;90.90;;;;;;5069778;28;20111;-59
2023/01/04 06:00:55;;;;;;;2.30;1.00;;;12.00;90.90;;;;;;5073736;28;20398;-66
2023/01/04 06:03:23;;;;;;;0.70;0.70;;;11.90;90.90;;;;;;5090991;28;20028;-66
2023/01/04 06:05:52;;;;;;;0.80;0.80;;;12.00;91.00;;;;;;5074780;28;20057;-66
2023/01/04 06:08:18;;;;;;;1.33;0.80;;;12.00;91.00;;;;;;5053491;28;20035;-58
2023/01/04 06:10:44;;;;;;;1.60;0.60;;;12.00;91.00;;;;;;5091521;28;20388;-59
2023/01/04 06:13:10;;;;;;;2.67;1.05;;;12.00;91.00;;;;;;5088122;28;20071;-66
2023/01/04 06:15:35;;;;;;;1.58;0.70;;;12.00;91.20;;;;;;5072602;28;20623;-66
2023/01/04 06:18:01;;;;;;;1.25;0.65;;;12.00;91.00;;;;;;5095888;28;20367;-58
2023/01/04 06:20:26;;;;;;;0.75;0.75;;;12.10;91.00;;;;;;5070726;28;20092;-66
2023/01/04 06:22:52;;;;;;;0.75;0.65;;;12.10;91.00;;;;;;5067868;28;20099;-66
2023/01/04 06:25:18;;;;;;;0.52;0.52;;;12.10;91.00;;;;;;5078210;28;20040;-63
2023/01/04 06:27:44;;;;;;;0.60;0.60;;;12.10;91.00;;;;;;5057319;28;20033;-59
2023/01/04 06:30:09;;;;;;;0.43;0.40;;;12.10;91.00;;;;;;5091719;28;20458;-64
2023/01/04 06:32:35;;;;;;;2.35;0.93;;;12.10;91.10;;;;;;5088879;28;20137;-64
2023/01/04 06:35:01;;;;;;;1.02;0.70;;;12.20;91.10;;;;;;5094110;28;20026;-65
2023/01/04 06:37:27;;;;;;;1.33;0.57;;;12.20;91.10;;;;;;5090644;28;20032;-64
2023/01/04 06:39:53;;;;;;;0.60;0.60;;;12.20;91.10;;;;;;5093021;28;20495;-64
2023/01/04 06:45:03;;;;;;;0.77;0.77;;;12.20;91.10;;;;;;5100190;28;20096;-64
2023/01/04 06:47:29;;;;;;;0.70;0.68;;;12.20;91.10;;;;;;5098685;28;20016;-63
2023/01/04 06:49:55;;;;;;;1.20;1.00;;;12.20;91.10;;;;;;5102542;28;20404;-63
2023/01/04 06:52:22;;;;;;;0.73;0.70;;;12.20;91.10;;;;;;5071178;28;20591;-60
2023/01/04 06:54:47;;;;;;;0.80;0.70;;;12.30;91.10;;;;;;5091421;28;20379;-60
2023/01/04 06:57:13;;;;;;;4.32;0.60;;;12.30;91.40;;;;;;5093240;28;20039;-65
2023/01/04 06:59:39;;;;;;;0.88;0.52;;;12.30;91.10;;;;;;5091004;28;20089;-63
2023/01/04 07:02:05;;;;;;;0.82;0.65;;;12.30;91.10;;;;;;5096051;28;20106;-63
2023/01/04 07:04:31;;;;;;;1.20;1.00;;;12.40;91.10;;;;;;5074929;28;20391;-60
2023/01/04 07:06:56;;;;;;;1.15;0.90;;;12.40;91.00;;;;;;5064933;28;20059;-64
2023/01/04 07:09:22;;;;;;;2.15;0.80;;;12.50;91.00;;;;;;5094284;28;20027;-59
2023/01/04 07:11:48;;;;;;;2.33;1.05;;;12.50;91.00;;;;;;5093552;28;20403;-64
2023/01/04 07:14:14;;;;;;;0.68;0.68;;;12.50;90.90;;;;;;5092331;28;20076;-59
2023/01/04 07:16:39;;;;;;;0.77;0.70;;;12.50;90.90;;;;;;5090195;28;20475;-58
2023/01/04 07:19:07;;;;;;;1.65;1.15;;;12.50;90.80;;;;;;5093451;28;20066;-59
2023/01/04 07:21:33;;;;;;;1.75;0.90;;;12.60;90.80;;;;;;5090648;28;20020;-59
2023/01/04 07:23:58;;;;;;;1.83;1.00;;;12.60;90.70;;;;;;5091678;28;20032;-58
2023/01/04 07:26:24;;;;;;;1.17;0.93;;;12.60;90.70;;;;;;5086651;28;20032;-63
2023/01/04 07:31:34;;;;;;;1.25;0.73;;;12.60;90.70;;;;;;5087174;28;20109;-64
2023/01/04 07:33:59;;;;;;;2.10;0.80;;;12.60;90.70;;;;;;5076462;28;20489;-64
2023/01/04 07:36:25;;;;;;;0.55;0.55;;;12.60;90.80;;;;;;5093770;28;20383;-65
2023/01/04 07:38:51;;;;;;;1.00;0.82;;;12.60;90.80;;;;;;5072380;28;20092;-65
2023/01/04 07:41:17;;;;;;;1.20;0.65;;;12.60;90.70;;;;;;5095895;28;20031;-64
2023/01/04 07:43:42;;;;;;;2.53;0.85;;;12.70;90.70;;;;;;5099432;28;20028;-60
2023/01/04 07:46:08;;;;;;;2.95;0.70;;;12.70;90.90;;;;;;5096384;28;20108;-59
2023/01/04 07:48:34;;;;;;;1.60;1.02;;;12.70;90.60;;;;;;5091788;28;20502;-59
2023/01/04 07:50:59;;;;;;;1.73;1.00;;;12.70;90.60;;;;;;5086445;28;20025;-63
2023/01/04 07:53:25;;;;;;;1.73;0.77;;;12.70;90.50;;;;;;5081249;28;20476;-63
2023/01/04 07:55:57;;;;;;;0.60;0.60;;;12.70;90.60;;;;;;5097612;28;20029;-63
2023/01/04 07:58:24;;;;;;;1.13;0.50;;;12.70;90.60;;;;;;5092662;28;20107;-63
2023/01/04 08:00:50;;;;;;;1.00;0.75;;;12.70;90.50;;;;;;5083006;28;20020;-63
2023/01/04 08:03:15;;;;;;;0.75;0.55;;;12.70;90.50;;;;;;5091476;28;20561;-64
2023/01/04 08:05:41;;;;;;;4.15;0.70;;;12.70;90.50;;;;;;5075986;28;20330;-64
2023/01/04 08:08:08;;;;;;;0.70;0.70;;;12.70;90.50;;;;;;5094053;28;20474;-63
2023/01/04 08:10:33;;;;;;;1.70;0.50;;;12.70;90.60;;;;;;5100976;28;20490;-63
2023/01/04 08:12:59;;;;;;;0.82;0.55;;;12.70;90.60;;;;;;5092300;28;20165;-60
2023/01/04 08:15:26;;;;;;;1.38;0.93;;;12.70;90.60;;;;;;5089342;28;20027;-64
2023/01/04 08:17:52;;;;;;;0.98;0.77;;;12.70;90.60;;;;;;5076109;28;20027;-59
2023/01/04 08:20:18;;;;;;;1.98;0.88;;;12.70;90.60;;;;;;5099944;28;20019;-59
2023/01/04 08:22:44;;;;;;;3.60;0.77;;;12.70;90.60;;;;;;5092662;28;20028;-59
2023/01/04 08:25:09;;;;;;;2.38;0.82;;;12.70;90.70;;;;;;5072514;28;20026;-59
2023/01/04 08:27:37;;;;;;;1.27;0.80;;;12.70;90.70;;;;;;5074581;28;20095;-59
2023/01/04 08:30:03;;;;;;;2.13;0.65;;;12.70;90.80;;;;;;5087559;28;20222;-64
2023/01/04 08:32:29;;;;;;;1.65;1.17;;;12.70;90.80;;;;;;5059731;28;20028;-63
2023/01/04 08:34:55;;;;;;;1.80;1.08;;;12.70;90.80;;;;;;5086227;28;20032;-64
2023/01/04 08:37:21;;;;;;;3.13;1.02;;;12.70;90.80;;;;;;5071131;28;20402;-66
2023/01/04 08:39:46;;;;;;;1.10;1.00;;;12.80;90.80;;;;;;5078967;28;20032;-63
2023/01/04 08:42:12;;;;;;;3.30;1.20;;;12.80;90.80;;;;;;5087241;28;20031;-59
2023/01/04 08:44:38;;;;;;;7.60;1.25;;;12.80;90.80;;;;;;5085041;28;20024;-66
2023/01/04 08:47:03;;;;;;;1.00;0.85;;;12.80;90.80;;;;;;5090221;28;20505;-63
2023/01/04 08:49:29;;;;;;;2.13;1.15;;;12.80;90.80;;;;;;5090036;28;20498;-65
2023/01/04 08:51:55;;;;;;;0.90;0.90;;;12.80;90.90;;;;;;5089423;28;20036;-58
2023/01/04 08:54:21;;;;;;;3.70;1.55;;;12.80;90.90;;;;;;5075907;28;20119;-60
2023/01/04 08:56:47;;;;;;;1.83;0.88;;;12.80;90.90;;;;;;5064513;28;20071;-59
2023/01/04 08:59:13;;;;;;;1.77;0.70;;;12.80;90.90;;;;;;5078639;28;20066;-58
2023/01/04 09:01:40;;;;;;;0.70;0.70;;;12.80;90.90;;;;;;5065712;28;20084;-65
2023/01/04 09:04:06;;;;;;;0.93;0.88;;;12.80;91.00;;;;;;5088858;28;20024;-59
2023/01/04 09:06:32;;;;;;;0.88;0.85;;;12.80;91.00;;;;;;5087958;28;20103;-59
2023/01/04 09:08:58;;;;;;;1.08;0.82;;;12.80;91.00;;;;;;5071678;28;20107;-65
2023/01/04 09:11:25;;;;;;;0.70;0.70;;;12.90;91.10;;;;;;5089753;28;20082;-59
2023/01/04 09:13:58;;;;;;;1.67;0.90;;;12.90;91.10;;;;;;5082376;28;20043;-59
2023/01/04 09:16:24;;;;;;;2.92;1.00;;;12.90;91.10;;;;;;5076739;28;20028;-59
2023/01/04 09:18:49;;;;;;;1.00;0.90;;;12.90;91.10;;;;;;5045980;28;20472;-58
2023/01/04 09:21:18;;;;;;;0.80;0.80;;;12.90;91.10;;;;;;5083063;28;20521;-59
2023/01/04 09:23:45;;;;;;;0.73;0.73;;;12.90;91.10;;;;;;5086843;28;20054;-60
2023/01/04 09:26:13;;;;;;;2.72;0.65;;;12.90;91.10;;;;;;5092834;28;20013;-59
2023/01/04 09:28:39;;;;;;;0.52;0.52;;;12.90;91.10;;;;;;5084464;28;20027;-59
2023/01/04 09:31:10;;;;;;;2.67;1.10;;;12.90;91.10;;;;;;5084266;28;20020;-65
2023/01/04 09:33:36;;;;;;;1.30;0.77;;;13.00;91.20;;;;;;5087230;28;20562;-65
2023/01/04 09:36:05;;;;;;;1.38;0.88;;;13.00;91.20;;;;;;5090026;28;20031;-65
2023/01/04 09:38:32;;;;;;;0.80;0.80;;;13.00;91.20;;;;;;5084530;28;20035;-65
2023/01/04 09:41:13;;;;;;;1.00;0.80;;;13.00;91.20;;;;;;5089926;28;20427;-58
2023/01/04 09:43:51;;;;;;;2.88;0.90;;;13.10;91.20;;;;;;5071417;28;20036;-65
2023/01/04 09:46:28;;;;;;;2.97;0.70;;;13.00;91.20;;;;;;5086614;28;20616;-65
2023/01/04 09:49:12;;;;;;;1.02;0.68;;;13.10;91.30;;;;;;5062156;28;20028;-65
2023/01/04 09:51:40;;;;;;;4.30;0.68;;;13.00;91.30;;;;;;5078782;28;20038;-65
2023/01/04 09:54:19;;;;;;;0.98;0.60;;;13.00;91.40;;;;;;5063385;28;20035;-65
2023/01/04 09:56:57;;;;;;;1.00;0.85;;;13.10;91.30;;;;;;5083213;28;20509;-65
2023/01/04 09:59:31;;;;;;;3.42;1.25;;;13.10;91.30;;;;;;5078834;28;20028;-65
2023/01/04 10:02:03;;;;;;;1.00;0.70;;;13.10;91.40;;;;;;5101574;28;20417;-59
2023/01/04 10:04:48;;;;;;;2.17;1.05;;;13.00;91.40;;;;;;5078402;28;20024;-65
2023/01/04 10:07:32;;;;;;;2.47;1.25;;;13.10;91.40;;;;;;5074410;28;20035;-65
2023/01/04 10:09:59;;;;;;;1.70;0.80;;;13.10;91.50;;;;;;5089179;28;20077;-65
2023/01/04 10:12:52;;;;;;;3.95;0.60;;;13.00;91.50;;;;;;5097446;28;20032;-59
2023/01/04 10:15:34;;;;;;;0.70;0.60;;;13.10;91.40;;;;;;5073386;28;20108;-59
2023/01/04 10:18:19;;;;;;;1.45;0.57;;;13.10;91.40;;;;;;5088576;28;20040;-66
2023/01/04 10:20:55;;;;;;;1.00;0.80;;;13.10;91.40;;;;;;5094779;28;20114;-65
2023/01/04 10:23:38;;;;;;;1.08;0.60;;;13.10;91.40;;;;;;5093094;28;20017;-59
2023/01/04 10:26:19;;;;;;;0.85;0.60;;;13.10;91.50;;;;;;5089795;28;20124;-66
2023/01/04 10:29:03;;;;;;;2.70;0.65;;;13.10;91.50;;;;;;5084560;28;20055;-65
2023/01/04 10:31:41;;;;;;;0.88;0.80;;;13.10;91.50;;;;;;5095673;28;20016;-65
2023/01/04 10:34:23;;;;;;;7.25;1.25;;;13.10;91.50;;;;;;5087130;28;20027;-59
2023/01/04 10:36:53;;;;;;;5.18;1.27;;;13.10;91.50;;;;;;5104257;28;20030;-59
2023/01/04 10:39:23;;;;;;;0.38;0.38;;;13.10;91.60;;;;;;5095089;28;20542;-59
2023/01/04 10:41:52;;;;;;;0.68;0.60;;;13.20;91.50;;;;;;5075488;28;20351;-59
2023/01/04 10:44:33;;;;;;;0.50;0.50;;;13.20;91.50;;;;;;5088888;28;20016;-65
2023/01/04 10:47:19;;;;;;;0.85;0.68;;;13.20;91.50;;;;;;5092165;28;20048;-59
2023/01/04 10:49:57;;;;;;;0.52;0.47;;;13.20;91.50;;;;;;5090593;28;20383;-59
2023/01/04 10:52:34;;;;;;;1.00;0.70;;;13.20;91.50;;;;;;5091487;28;20028;-59
2023/01/04 10:55:09;;;;;;;0.75;0.52;;;13.20;91.60;;;;;;5091473;28;20020;-65
2023/01/04 10:57:41;;;;;;;0.40;0.40;;;13.20;91.60;;;;;;5082910;28;20035;-66
2023/01/04 11:00:14;;;;;;;1.13;0.70;;;13.20;91.60;;;;;;5092786;28;20107;-65
2023/01/04 11:02:54;;;;;;;0.73;0.60;;;13.20;91.60;;;;;;5100516;28;20372;-65
2023/01/04 11:05:23;;;;;;;0.60;0.60;;;13.20;91.60;;;;;;5093458;28;20024;-65
2023/01/04 11:08:15;;;;;;;0.80;0.60;;;13.20;91.50;;;;;;5088164;28;20032;-66
2023/01/04 11:11:08;;;;;;;0.68;0.68;;;13.30;91.50;;;;;;5105130;28;20031;-59
2023/01/04 11:13:34;;;;;;;1.55;0.68;;;13.30;91.60;;;;;;5091452;28;20145;-66
2023/01/04 11:16:03;;;;;;;1.52;0.80;;;13.30;91.60;;;;;;5097399;28;20139;-64
2023/01/04 11:18:31;;;;;;;0.80;0.57;;;13.30;91.60;;;;;;5096850;28;20043;-64
2023/01/04 11:20:58;;;;;;;0.60;0.57;;;13.30;91.60;;;;;;5105432;28;20038;-64
2023/01/04 11:23:24;;;;;;;1.10;0.50;;;13.30;91.60;;;;;;5080715;28;20052;-64
2023/01/04 11:25:59;;;;;;;0.98;0.85;;;13.30;91.60;;;;;;5081970;28;20024;-60
2023/01/04 11:28:40;;;;;;;0.60;0.60;;;13.30;91.60;;;;;;5091390;28;20501;-60
2023/01/04 11:31:45;;;;;;;1.30;0.90;;;13.30;91.60;;;;;;5098132;28;20036;-60
2023/01/04 11:34:11;;;;;;;0.90;0.80;;;13.30;91.60;;;;;;5089792;28;20519;-60
2023/01/04 11:36:40;;;;;;;0.30;0.25;;;13.30;91.80;;;;;;5069689;28;20059;-61
2023/01/04 11:39:16;;;;;;;0.85;0.45;;;13.20;91.70;;;;;;5071447;28;20035;-66
2023/01/04 11:41:57;;;;;;;1.02;0.60;;;13.20;91.80;;;;;;5089530;28;20056;-61
2023/01/04 11:44:25;;;;;;;0.82;0.70;;;13.30;91.80;;;;;;5088033;28;20061;-66
2023/01/04 11:47:18;;;;;;;2.30;0.70;;;13.20;91.90;;;;;;5089166;28;20081;-65
2023/01/04 11:49:43;;;;;;;;;;;13.20;91.80;;;;;;5083983;28;20030;-62
2023/01/04 11:52:33;;;;;;;0.73;0.70;;;13.20;91.90;;;;;;5098494;28;19911;-60
2023/01/04 11:55:24;;;;;;;0.57;0.57;;;13.20;91.90;;;;;;5099242;28;20038;-66
2023/01/04 11:58:10;;;;;;;0.35;0.32;;;13.30;91.90;;;;;;5092957;28;20032;-61
2023/01/04 12:00:36;;;;;;;1.00;0.60;;;13.30;91.80;;;;;;5093155;28;20024;-65
2023/01/04 12:03:16;;;;;;;0.88;0.43;;;13.30;91.80;;;;;;5096753;28;20147;-64
2023/01/04 12:05:43;;;;;;;0.52;0.50;;;13.40;91.80;;;;;;5087277;28;20027;-62
2023/01/04 12:08:34;;;;;;;1.92;0.50;;;13.40;91.70;;;;;;5071699;28;20123;-60
2023/01/04 12:11:03;;;;;;;0.30;0.30;;;13.40;91.70;;;;;;5087768;28;20036;-64
2023/01/04 12:13:30;;;;;;;0.52;0.38;;;13.40;91.70;;;;;;5105411;28;20028;-60
2023/01/04 12:16:25;;;;;;;0.98;0.60;;;13.40;91.60;;;;;;5098927;28;20041;-61
2023/01/04 12:18:53;;;;;;;0.45;0.45;;;13.50;91.60;;;;;;5087800;28;20042;-60
2023/01/04 12:21:24;;;;;;;0.70;0.60;;;13.50;91.50;;;;;;5076764;28;20036;-59
2023/01/04 12:23:52;;;;;;;0.40;0.40;;;13.50;91.50;;;;;;5092238;28;20011;-59
2023/01/04 12:26:18;;;;;;;11.35;0.82;;;13.60;91.50;;;;;;5095926;28;20510;-64
2023/01/04 12:28:47;;;;;;;0.68;0.68;;;13.60;91.40;;;;;;5084563;28;20015;-64
2023/01/04 12:31:19;;;;;;;0.70;0.70;;;13.60;91.10;;;;;;5109639;28;20146;-60
2023/01/04 12:33:49;;;;;;;0.93;0.85;;;13.60;91.10;;;;;;5092537;28;20073;-63
2023/01/04 12:36:20;;;;;;;0.70;0.60;;;13.60;91.10;;;;;;5107875;28;20123;-67
2023/01/04 12:38:54;;;;;;;0.70;0.70;;;13.70;91.10;;;;;;5093032;28;20107;-66
2023/01/04 12:41:27;;;;;;;0.45;0.45;;;13.70;91.00;;;;;;5095744;28;20382;-59
2023/01/04 12:43:54;;;;;;;0.55;0.55;;;13.70;90.90;;;;;;5091036;28;20394;-59
2023/01/04 12:49:25;;;;;;;1.45;1.02;;;13.80;91.10;;;;;;5087919;28;20468;-59
2023/01/04 12:52:09;;;;;;;1.25;1.15;;;13.80;90.70;;;;;;5070685;28;20024;-59
2023/01/04 12:54:48;;;;;;;1.15;1.05;;;13.90;90.60;;;;;;5088607;28;20027;-59
2023/01/04 12:57:17;;;;;;;2.50;1.08;;;13.90;90.60;;;;;;5071783;28;20039;-66
2023/01/04 13:00:01;;;;;;;1.17;0.73;;;13.80;90.60;;;;;;5089537;28;20036;-67
2023/01/04 13:02:33;;;;;;;3.47;1.40;;;13.90;90.50;;;;;;5089254;28;20052;-67
2023/01/04 13:05:17;;;;;;;3.15;0.70;;;13.90;90.50;;;;;;5085580;28;20020;-67
2023/01/04 13:07:49;;;;;;;2.67;1.15;;;14.00;90.30;;;;;;5091007;28;20019;-59
2023/01/04 13:10:46;;;;;;;1.60;1.33;;;13.90;90.20;;;;;;5075557;28;20039;-68
2023/01/04 13:13:46;;;;;;;2.83;1.45;;;14.00;90.00;;;;;;5080816;28;20345;-59
2023/01/04 13:16:36;;;;;;;1.77;1.23;;;14.00;90.00;;;;;;5084265;28;20031;-59
2023/01/04 13:19:08;;;;;;;2.17;0.90;;;14.10;89.90;;;;;;5083469;28;20042;-59
2023/01/04 13:21:47;;;;;;;1.33;0.80;;;14.10;90.10;;;;;;5087846;28;20454;-60
2023/01/04 13:24:18;;;;;;;0.98;0.90;;;14.10;89.60;;;;;;5068389;28;20938;-59
2023/01/04 13:26:47;;;;;;;3.33;0.80;;;14.10;89.70;;;;;;5084573;28;20474;-59
2023/01/04 13:29:21;;;;;;;1.70;1.20;;;14.10;89.50;;;;;;5086675;28;20036;-59
2023/01/04 13:31:59;;;;;;;1.25;1.10;;;14.20;89.50;;;;;;5087786;28;20111;-59
2023/01/04 13:34:30;;;;;;;4.28;1.02;;;14.20;89.30;;;;;;5085896;28;21301;-65
2023/01/04 13:37:06;;;;;;;1.58;1.02;;;14.20;89.00;;;;;;5084295;28;20083;-66
2023/01/04 13:39:32;;;;;;;1.70;1.00;;;14.20;88.70;;;;;;5067171;28;20043;-60
2023/01/04 13:41:58;;;;;;;4.15;1.10;;;14.30;88.50;;;;;;5069547;28;20032;-60
2023/01/04 13:45:01;;;;;;;1.35;0.80;;;14.30;88.30;;;;;;5073223;28;20213;-59
2023/01/04 13:47:29;;;;;;;1.25;1.02;;;14.30;88.10;;;;;;5087322;28;20079;-60
2023/01/04 13:49:55;;;;;;;0.88;0.65;;;14.30;87.70;;;;;;5098945;28;20436;-67
2023/01/04 13:52:21;;;;;;;1.70;0.95;;;14.30;87.70;;;;;;5089275;28;20041;-59
2023/01/04 13:54:47;;;;;;;0.85;0.85;;;14.40;87.70;;;;;;5095055;28;20481;-59
2023/01/04 13:57:23;;;;;;;5.35;0.90;;;14.40;87.60;;;;;;5083980;28;20068;-68